Time;durP1;ratioP1;P1;durP2;ratioP2;P2;SDS_P1;SDS_P2;PMS_P1;PMS_P2;Temp;Humidity;BMP_temperature;BMP_pressure;BME280_temperature;BME280_humidity;BME280_pressure;Samples;Min_cycle;Max_cycle;Signal;HPM_P1;HPM_P2
2023/04/24 00:01:48;;;;;;;2.05;0.50;;;9.90;99.90;;;;;;5033567;28;20036;-71
2023/04/24 00:04:16;;;;;;;1.35;0.52;;;9.90;99.90;;;;;;5039604;28;20033;-71
2023/04/24 00:06:42;;;;;;;2.30;0.43;;;9.80;99.90;;;;;;5039212;28;20040;-71
2023/04/24 00:09:09;;;;;;;2.08;0.28;;;9.80;99.90;;;;;;5030046;28;20402;-70
2023/04/24 00:11:36;;;;;;;2.35;0.50;;;9.80;99.90;;;;;;5023391;28;20355;-70
2023/04/24 00:14:10;;;;;;;2.00;0.40;;;9.80;99.90;;;;;;5033014;28;20052;-72
2023/04/24 00:16:36;;;;;;;0.40;0.30;;;9.80;99.90;;;;;;5036440;28;20117;-72
2023/04/24 00:19:02;;;;;;;0.60;0.30;;;9.80;99.90;;;;;;5028914;28;20457;-70
2023/04/24 00:21:32;;;;;;;0.95;0.30;;;9.80;99.90;;;;;;5035703;28;20080;-71
2023/04/24 00:23:58;;;;;;;0.20;0.20;;;9.70;99.90;;;;;;5029434;28;20063;-71
2023/04/24 00:26:26;;;;;;;0.60;0.20;;;9.70;99.90;;;;;;5037059;28;20403;-71
2023/04/24 00:28:52;;;;;;;1.27;0.40;;;9.70;99.90;;;;;;5030236;28;20047;-71
2023/04/24 00:31:20;;;;;;;1.50;0.50;;;9.70;99.90;;;;;;5033228;28;20042;-71
2023/04/24 00:33:46;;;;;;;0.40;0.30;;;9.70;99.90;;;;;;5030396;28;20056;-70
2023/04/24 00:36:11;;;;;;;1.33;0.60;;;9.70;99.90;;;;;;5028938;28;20064;-70
2023/04/24 00:38:43;;;;;;;0.85;0.45;;;9.80;99.90;;;;;;5029297;28;20030;-71
2023/04/24 00:41:09;;;;;;;1.65;1.08;;;9.70;99.90;;;;;;5057532;28;20045;-70
2023/04/24 00:43:34;;;;;;;2.88;1.05;;;9.70;99.90;;;;;;5040790;28;20039;-70
2023/04/24 00:46:01;;;;;;;2.17;1.20;;;9.80;99.90;;;;;;5033944;28;20443;-71
2023/04/24 00:48:27;;;;;;;2.38;1.20;;;9.80;99.90;;;;;;5034635;28;20036;-70
2023/04/24 00:50:53;;;;;;;8.15;2.22;;;9.80;99.90;;;;;;5031808;28;20083;-71
2023/04/24 00:53:25;;;;;;;5.10;2.08;;;9.80;99.90;;;;;;5023174;28;20037;-70
2023/04/24 00:55:51;;;;;;;3.10;1.60;;;9.80;99.90;;;;;;5024301;28;20036;-72
2023/04/24 00:58:19;;;;;;;3.35;1.38;;;9.80;99.90;;;;;;5031832;28;20033;-72
2023/04/24 01:00:50;;;;;;;2.13;1.48;;;9.80;99.90;;;;;;5025771;28;20037;-71
2023/04/24 01:03:28;;;;;;;2.85;1.42;;;9.80;99.90;;;;;;5030622;28;20033;-70
2023/04/24 01:05:57;;;;;;;2.45;1.60;;;9.80;99.90;;;;;;5032857;28;20037;-71
2023/04/24 01:08:28;;;;;;;2.67;1.20;;;9.80;99.90;;;;;;5030145;28;20098;-71
2023/04/24 01:11:03;;;;;;;3.00;1.52;;;9.90;99.90;;;;;;5043083;28;20033;-70
2023/04/24 01:13:35;;;;;;;5.88;1.50;;;9.90;99.90;;;;;;5029044;28;20037;-71
2023/04/24 01:16:01;;;;;;;2.90;1.58;;;9.80;99.90;;;;;;5026362;28;20033;-72
2023/04/24 01:18:30;;;;;;;4.00;1.80;;;9.80;99.90;;;;;;5027368;28;20039;-70
2023/04/24 01:20:59;;;;;;;4.70;1.83;;;9.90;99.90;;;;;;5036742;28;20056;-71
2023/04/24 01:23:28;;;;;;;5.97;1.85;;;9.90;99.90;;;;;;5028025;28;20056;-70
2023/04/24 01:26:09;;;;;;;6.40;2.00;;;9.80;99.90;;;;;;5035435;28;20079;-71
2023/04/24 01:28:34;;;;;;;;;;;9.80;99.90;;;;;;5046759;28;20207;-71
2023/04/24 01:31:00;;;;;;;3.22;1.55;;;9.80;99.90;;;;;;5038874;28;20403;-70
2023/04/24 01:33:26;;;;;;;3.15;1.50;;;9.80;99.90;;;;;;5038167;28;20090;-71
2023/04/24 01:35:52;;;;;;;5.30;1.80;;;9.90;99.90;;;;;;5032708;28;20086;-71
2023/04/24 01:38:20;;;;;;;4.53;1.98;;;9.90;99.90;;;;;;5040980;28;20045;-73
2023/04/24 01:40:49;;;;;;;4.80;1.83;;;9.90;99.90;;;;;;5041023;28;20072;-70
2023/04/24 01:43:15;;;;;;;2.80;1.90;;;9.90;99.90;;;;;;5037288;28;20033;-71
2023/04/24 01:45:41;;;;;;;6.95;1.88;;;9.90;99.90;;;;;;5033307;28;20133;-71
2023/04/24 01:48:11;;;;;;;2.10;1.27;;;9.90;99.90;;;;;;5038176;28;20120;-70
2023/04/24 01:50:36;;;;;;;3.03;1.55;;;9.90;99.90;;;;;;5030735;28;20030;-71
2023/04/24 01:53:02;;;;;;;2.70;1.17;;;9.90;99.90;;;;;;5033532;28;20037;-70
2023/04/24 01:55:28;;;;;;;2.97;1.50;;;9.90;99.90;;;;;;5047051;28;20033;-70
2023/04/24 01:57:56;;;;;;;8.90;1.70;;;9.90;99.90;;;;;;5037014;28;20056;-71
2023/04/24 02:00:25;;;;;;;2.63;1.60;;;9.90;99.90;;;;;;5034603;28;20044;-71
2023/04/24 02:02:51;;;;;;;2.67;1.38;;;9.80;99.90;;;;;;5033272;28;20049;-71
2023/04/24 02:05:16;;;;;;;2.65;1.45;;;9.90;99.90;;;;;;5033716;28;20060;-72
2023/04/24 02:07:45;;;;;;;3.33;1.55;;;9.90;99.90;;;;;;5039626;28;20029;-71
2023/04/24 02:10:13;;;;;;;3.10;1.60;;;9.80;99.90;;;;;;5034461;28;20044;-70
2023/04/24 02:12:39;;;;;;;4.15;1.58;;;9.80;99.90;;;;;;5031344;28;20029;-71
2023/04/24 02:15:05;;;;;;;6.63;1.80;;;9.80;99.90;;;;;;5030488;28;20047;-71
2023/04/24 02:17:33;;;;;;;3.92;1.48;;;9.80;99.90;;;;;;5038424;28;20037;-70
2023/04/24 02:20:02;;;;;;;2.90;1.85;;;9.80;99.90;;;;;;5039338;28;20030;-72
2023/04/24 02:22:27;;;;;;;5.13;1.70;;;9.80;99.90;;;;;;5029970;28;20490;-71
2023/04/24 02:24:53;;;;;;;2.88;1.40;;;9.80;99.90;;;;;;5044501;28;20036;-71
2023/04/24 02:27:24;;;;;;;2.92;1.23;;;9.80;99.90;;;;;;5029751;28;20034;-70
2023/04/24 02:29:50;;;;;;;2.63;1.40;;;9.80;99.90;;;;;;5037469;28;20037;-70
2023/04/24 02:32:18;;;;;;;4.78;1.30;;;9.80;99.90;;;;;;5033811;28;20029;-71
2023/04/24 02:34:44;;;;;;;3.05;1.40;;;9.80;99.90;;;;;;5031256;28;20033;-75
2023/04/24 02:37:21;;;;;;;3.67;1.85;;;9.80;99.90;;;;;;5029875;28;20098;-70
2023/04/24 02:39:47;;;;;;;4.70;1.70;;;9.80;99.90;;;;;;5032155;28;20033;-71
2023/04/24 02:42:15;;;;;;;3.80;1.75;;;9.80;99.90;;;;;;5040119;28;20033;-71
2023/04/24 02:44:41;;;;;;;2.97;1.67;;;9.80;99.90;;;;;;5033026;28;20413;-71
2023/04/24 02:47:07;;;;;;;4.65;2.33;;;9.90;99.90;;;;;;5025781;28;20037;-71
2023/04/24 02:49:33;;;;;;;3.88;2.25;;;9.80;99.90;;;;;;5038976;28;20041;-70
2023/04/24 02:51:58;;;;;;;3.40;1.92;;;9.80;99.90;;;;;;5032220;28;20036;-71
2023/04/24 02:54:24;;;;;;;3.35;2.15;;;9.80;99.90;;;;;;5038662;28;20040;-70
2023/04/24 02:56:52;;;;;;;4.22;2.05;;;9.80;99.90;;;;;;5036867;28;20021;-73
2023/04/24 02:59:18;;;;;;;3.92;2.13;;;9.80;99.90;;;;;;5036353;28;20021;-71
2023/04/24 03:01:49;;;;;;;5.03;2.00;;;9.80;99.90;;;;;;5037732;28;20028;-71
2023/04/24 03:04:27;;;;;;;5.18;2.13;;;9.70;99.90;;;;;;5039893;28;20040;-71
2023/04/24 03:06:54;;;;;;;4.22;2.38;;;9.70;99.90;;;;;;5028943;28;20481;-70
2023/04/24 03:09:20;;;;;;;3.35;2.00;;;9.70;99.90;;;;;;5032906;28;20040;-70
2023/04/24 03:11:46;;;;;;;2.78;1.58;;;9.70;99.90;;;;;;5031571;28;20037;-71
2023/04/24 03:14:11;;;;;;;7.20;2.03;;;9.60;99.90;;;;;;5034222;28;20026;-71
2023/04/24 03:16:37;;;;;;;4.60;1.77;;;9.70;99.90;;;;;;5030727;28;20034;-71
2023/04/24 03:19:02;;;;;;;3.92;2.17;;;9.60;99.90;;;;;;5029624;28;20021;-72
2023/04/24 03:21:31;;;;;;;3.78;2.50;;;9.60;99.90;;;;;;5032327;28;20033;-71
2023/04/24 03:24:03;;;;;;;3.78;1.67;;;9.60;99.90;;;;;;5034942;28;20026;-71
2023/04/24 03:26:28;;;;;;;3.40;1.50;;;9.60;99.90;;;;;;5026658;28;20413;-71
2023/04/24 03:28:56;;;;;;;3.35;1.55;;;9.60;99.90;;;;;;5029924;28;20037;-71
2023/04/24 03:31:22;;;;;;;4.88;1.42;;;9.60;99.90;;;;;;5031891;28;20030;-71
2023/04/24 03:33:48;;;;;;;3.00;1.65;;;9.50;99.90;;;;;;5030521;28;20055;-71
2023/04/24 03:36:13;;;;;;;3.08;1.77;;;9.50;99.90;;;;;;5035244;28;20063;-72
2023/04/24 03:38:39;;;;;;;4.47;2.00;;;9.50;99.90;;;;;;5026991;28;20037;-72
2023/04/24 03:41:04;;;;;;;3.95;2.03;;;9.50;99.90;;;;;;5038156;28;20030;-71
2023/04/24 03:43:34;;;;;;;5.85;1.90;;;9.50;99.90;;;;;;5027257;28;20038;-71
2023/04/24 03:46:00;;;;;;;5.57;2.23;;;9.50;99.90;;;;;;5036986;28;20075;-71
2023/04/24 03:48:25;;;;;;;4.28;2.05;;;9.50;99.90;;;;;;5036037;28;20040;-71
2023/04/24 03:50:51;;;;;;;3.88;1.90;;;9.40;99.90;;;;;;5029107;28;20045;-71
2023/04/24 03:53:16;;;;;;;4.10;2.28;;;9.50;99.90;;;;;;5033745;28;20033;-71
2023/04/24 03:55:42;;;;;;;4.65;2.13;;;9.50;99.90;;;;;;5030368;28;20456;-71
2023/04/24 03:58:08;;;;;;;4.57;2.20;;;9.50;99.90;;;;;;5027784;28;20044;-71
2023/04/24 04:00:34;;;;;;;4.82;2.45;;;9.50;99.90;;;;;;5032100;28;20037;-71
2023/04/24 04:03:00;;;;;;;5.97;2.22;;;9.50;99.90;;;;;;5039656;28;20033;-71
2023/04/24 04:05:25;;;;;;;5.10;2.58;;;9.50;99.90;;;;;;5035531;28;20044;-70
2023/04/24 04:07:51;;;;;;;6.72;2.10;;;9.60;99.90;;;;;;5039220;28;20041;-71
2023/04/24 04:10:20;;;;;;;4.63;2.65;;;9.50;99.90;;;;;;5040459;28;20068;-71
2023/04/24 04:12:45;;;;;;;3.60;1.77;;;9.50;99.90;;;;;;5042336;28;20489;-71
2023/04/24 04:15:11;;;;;;;4.85;2.42;;;9.50;99.90;;;;;;5028743;28;20080;-71
2023/04/24 04:17:37;;;;;;;4.55;2.00;;;9.50;99.90;;;;;;5036263;28;20807;-71
2023/04/24 04:20:08;;;;;;;5.15;1.80;;;9.50;99.90;;;;;;5031502;28;20435;-72
2023/04/24 04:22:37;;;;;;;;;;;9.50;99.90;;;;;;5031356;28;20103;-71
2023/04/24 04:25:04;;;;;;;5.07;1.77;;;9.50;99.90;;;;;;5039487;28;19913;-73
2023/04/24 04:27:36;;;;;;;9.10;2.78;;;9.50;99.90;;;;;;5035027;28;20501;-71
2023/04/24 04:30:04;;;;;;;2.70;1.45;;;9.50;99.90;;;;;;5032195;28;20107;-72
2023/04/24 04:32:34;;;;;;;2.92;1.40;;;9.40;99.90;;;;;;5025728;28;20033;-71
2023/04/24 04:35:03;;;;;;;7.00;1.90;;;9.40;99.90;;;;;;5034213;28;20082;-72
2023/04/24 04:37:33;;;;;;;3.75;1.88;;;9.40;99.90;;;;;;5028309;28;20036;-72
2023/04/24 04:39:59;;;;;;;3.20;1.85;;;9.40;99.90;;;;;;5037726;28;20033;-71
2023/04/24 04:42:34;;;;;;;3.65;1.50;;;9.40;99.90;;;;;;5032856;28;20393;-72
2023/04/24 04:45:04;;;;;;;1.90;0.80;;;9.40;99.90;;;;;;5022410;28;20038;-72
2023/04/24 04:47:32;;;;;;;2.47;0.75;;;9.40;99.90;;;;;;5030494;28;20633;-72
2023/04/24 04:50:05;;;;;;;1.55;0.73;;;9.30;99.90;;;;;;5039631;28;20087;-72
2023/04/24 04:52:34;;;;;;;0.30;0.20;;;9.30;99.90;;;;;;5034908;28;20033;-71
2023/04/24 04:55:19;;;;;;;0.60;0.20;;;9.20;99.90;;;;;;5032908;28;20579;-72
2023/04/24 04:57:46;;;;;;;0.70;0.25;;;9.20;99.90;;;;;;5050813;28;20033;-75
2023/04/24 05:00:15;;;;;;;0.50;0.30;;;9.10;99.90;;;;;;5037331;28;20025;-71
2023/04/24 05:02:44;;;;;;;0.82;0.17;;;9.10;99.90;;;;;;5036227;28;20127;-72
2023/04/24 05:05:16;;;;;;;0.73;0.20;;;9.10;99.90;;;;;;5031311;28;20175;-71
2023/04/24 05:07:45;;;;;;;2.58;0.32;;;9.00;99.90;;;;;;5041077;28;20039;-71
2023/04/24 05:10:10;;;;;;;0.15;0.10;;;9.00;99.90;;;;;;5032551;28;20692;-71
2023/04/24 05:12:36;;;;;;;0.40;0.03;;;9.00;99.90;;;;;;5038835;28;20059;-71
2023/04/24 05:15:06;;;;;;;0.63;0.08;;;9.00;99.90;;;;;;5037058;28;20044;-71
2023/04/24 05:17:31;;;;;;;0.20;0.10;;;9.00;99.90;;;;;;5038510;28;20034;-71
2023/04/24 05:19:57;;;;;;;0.85;0.20;;;9.00;99.90;;;;;;5039366;28;20086;-71
2023/04/24 05:22:28;;;;;;;2.38;0.17;;;9.10;99.90;;;;;;5034943;28;20041;-71
2023/04/24 05:24:54;;;;;;;1.77;0.30;;;9.10;99.90;;;;;;5039592;28;20435;-72
2023/04/24 05:27:20;;;;;;;1.25;0.75;;;9.10;99.90;;;;;;5033758;28;20117;-71
2023/04/24 05:29:55;;;;;;;0.98;0.30;;;9.10;99.90;;;;;;5037619;28;20030;-71
2023/04/24 05:32:20;;;;;;;2.15;0.50;;;9.10;99.90;;;;;;5038210;28;20088;-71
2023/04/24 05:34:46;;;;;;;0.98;0.40;;;9.10;99.90;;;;;;5027497;28;20029;-71
2023/04/24 05:37:12;;;;;;;5.38;1.25;;;9.20;99.90;;;;;;5029523;28;20045;-75
2023/04/24 05:39:37;;;;;;;1.02;0.40;;;9.20;99.90;;;;;;5041548;28;20040;-71
2023/04/24 05:42:06;;;;;;;0.98;0.50;;;9.20;99.90;;;;;;5042360;28;20025;-73
2023/04/24 05:44:31;;;;;;;1.98;0.55;;;9.20;99.90;;;;;;5035429;28;20033;-71
2023/04/24 05:46:57;;;;;;;2.38;0.90;;;9.30;99.90;;;;;;5034233;28;20120;-73
2023/04/24 05:49:25;;;;;;;1.20;0.93;;;9.30;99.90;;;;;;5032549;28;20144;-72
2023/04/24 05:51:51;;;;;;;2.40;0.50;;;9.30;99.90;;;;;;5033633;28;20571;-73
2023/04/24 05:54:17;;;;;;;1.50;0.45;;;9.30;99.90;;;;;;5038585;28;20036;-72
2023/04/24 05:56:49;;;;;;;0.22;0.10;;;9.30;99.90;;;;;;5033830;28;20049;-72
2023/04/24 05:59:15;;;;;;;1.83;0.22;;;9.30;99.90;;;;;;5034457;28;20394;-72
2023/04/24 06:01:40;;;;;;;3.00;0.50;;;9.30;99.90;;;;;;5036488;28;20041;-72
2023/04/24 06:04:06;;;;;;;1.17;0.50;;;9.30;99.90;;;;;;5037673;28;20397;-71
2023/04/24 06:06:32;;;;;;;1.70;0.68;;;9.30;99.90;;;;;;5034065;28;20088;-70
2023/04/24 06:09:04;;;;;;;6.78;2.13;;;9.30;99.90;;;;;;5042104;28;20025;-76
2023/04/24 06:11:30;;;;;;;7.00;3.70;;;9.30;99.90;;;;;;5030201;28;20068;-71
2023/04/24 06:13:56;;;;;;;12.35;4.15;;;9.30;99.90;;;;;;5040247;28;20501;-71
2023/04/24 06:16:21;;;;;;;6.20;3.67;;;9.20;99.90;;;;;;5030382;28;20083;-72
2023/04/24 06:18:50;;;;;;;9.35;3.35;;;9.10;99.90;;;;;;5034362;28;20745;-72
2023/04/24 06:21:16;;;;;;;9.05;3.70;;;9.00;99.90;;;;;;5035143;28;20099;-71
2023/04/24 06:23:46;;;;;;;9.75;4.30;;;8.90;99.90;;;;;;5027625;28;20041;-71
2023/04/24 06:26:12;;;;;;;14.35;4.35;;;8.90;99.90;;;;;;5035093;28;20069;-71
2023/04/24 06:28:37;;;;;;;11.10;4.35;;;8.90;99.90;;;;;;5037699;28;20048;-71
2023/04/24 06:31:03;;;;;;;15.07;5.15;;;8.80;99.90;;;;;;5032599;28;20029;-71
2023/04/24 06:33:28;;;;;;;12.90;4.95;;;8.80;99.90;;;;;;5029906;28;20141;-71
2023/04/24 06:35:54;;;;;;;17.77;4.68;;;8.80;99.90;;;;;;5034556;28;20025;-71
2023/04/24 06:38:25;;;;;;;15.32;5.40;;;8.80;99.90;;;;;;5035160;28;20036;-73
2023/04/24 06:40:51;;;;;;;16.15;4.80;;;8.80;99.90;;;;;;5031031;28;20034;-72
2023/04/24 06:43:17;;;;;;;16.42;5.22;;;8.70;99.90;;;;;;5034842;28;20040;-71
2023/04/24 06:45:49;;;;;;;12.52;4.82;;;8.70;99.90;;;;;;5032425;28;20033;-71
2023/04/24 06:48:17;;;;;;;13.80;4.20;;;8.70;99.90;;;;;;5038892;28;20136;-71
2023/04/24 06:50:43;;;;;;;16.33;4.15;;;8.70;99.90;;;;;;5038480;28;20404;-71
2023/04/24 06:53:10;;;;;;;14.48;4.35;;;8.70;99.90;;;;;;5032405;28;20045;-71
2023/04/24 06:55:36;;;;;;;17.15;4.10;;;8.60;99.90;;;;;;5035286;28;20037;-74
2023/04/24 06:58:02;;;;;;;14.88;4.07;;;8.70;99.90;;;;;;5032294;28;20041;-70
2023/04/24 07:00:52;;;;;;;16.42;4.22;;;8.70;99.90;;;;;;5038194;28;20500;-71
2023/04/24 07:03:21;;;;;;;19.73;5.60;;;8.70;99.90;;;;;;5035087;28;20064;-75
2023/04/24 07:05:49;;;;;;;13.45;4.18;;;8.70;99.90;;;;;;5037931;28;20183;-71
2023/04/24 07:08:17;;;;;;;14.57;4.93;;;8.60;99.90;;;;;;5033075;28;20041;-72
2023/04/24 07:10:49;;;;;;;19.52;4.38;;;8.60;99.90;;;;;;5034606;28;20186;-71
2023/04/24 07:13:17;;;;;;;22.15;3.08;;;8.70;99.90;;;;;;5051134;28;20034;-71
2023/04/24 07:15:50;;;;;;;12.88;3.70;;;8.70;99.90;;;;;;5027833;28;20061;-71
2023/04/24 07:18:16;;;;;;;15.10;3.45;;;8.70;99.90;;;;;;5031076;28;20037;-72
2023/04/24 07:20:42;;;;;;;13.93;3.42;;;8.70;99.90;;;;;;5028872;28;20045;-72
2023/04/24 07:23:08;;;;;;;18.25;3.25;;;8.80;99.90;;;;;;5033096;28;20072;-73
2023/04/24 07:25:33;;;;;;;13.82;3.45;;;8.80;99.90;;;;;;5038690;28;20140;-72
2023/04/24 07:27:59;;;;;;;18.85;3.50;;;8.90;99.90;;;;;;5044388;28;20028;-71
2023/04/24 07:30:25;;;;;;;13.30;3.67;;;8.90;99.90;;;;;;5041046;28;20512;-72
2023/04/24 07:32:54;;;;;;;21.90;4.40;;;8.90;99.90;;;;;;5035836;28;20036;-72
2023/04/24 07:35:19;;;;;;;21.33;3.65;;;8.90;99.90;;;;;;5035626;28;20026;-72
2023/04/24 07:37:48;;;;;;;25.50;3.60;;;8.90;99.90;;;;;;5036697;28;20036;-71
2023/04/24 07:40:17;;;;;;;13.75;3.22;;;8.90;99.90;;;;;;5035359;28;20034;-72
2023/04/24 07:42:43;;;;;;;20.75;3.40;;;8.90;99.90;;;;;;5034906;28;20056;-71
2023/04/24 07:45:09;;;;;;;17.08;3.83;;;8.90;99.90;;;;;;5040795;28;20040;-71
2023/04/24 07:47:39;;;;;;;18.70;4.03;;;9.00;99.90;;;;;;5033559;28;20041;-74
2023/04/24 07:50:08;;;;;;;15.15;3.28;;;9.00;99.90;;;;;;5033997;28;20040;-71
2023/04/24 07:52:34;;;;;;;8.02;2.80;;;9.00;99.90;;;;;;5036302;28;20129;-76
2023/04/24 07:55:03;;;;;;;20.63;2.58;;;9.10;99.90;;;;;;5038811;28;20448;-72
2023/04/24 07:57:34;;;;;;;14.20;2.30;;;9.10;99.90;;;;;;5040869;28;20052;-72
2023/04/24 08:00:07;;;;;;;27.45;3.13;;;9.20;99.90;;;;;;5035263;28;20029;-73
2023/04/24 08:02:39;;;;;;;14.23;1.98;;;9.20;99.90;;;;;;5033993;28;20496;-71
2023/04/24 08:05:05;;;;;;;14.63;1.88;;;9.20;99.90;;;;;;5036947;28;20103;-71
2023/04/24 08:07:31;;;;;;;13.25;1.55;;;9.20;99.90;;;;;;5042392;28;20041;-71
2023/04/24 08:09:57;;;;;;;15.68;2.20;;;9.20;99.90;;;;;;5034654;28;20083;-71
2023/04/24 08:12:22;;;;;;;9.65;1.40;;;9.20;99.90;;;;;;5031228;28;20045;-71
2023/04/24 08:14:48;;;;;;;8.68;0.90;;;9.20;99.90;;;;;;5029363;28;20547;-71
2023/04/24 08:17:13;;;;;;;11.98;2.17;;;9.20;99.90;;;;;;5036684;28;20041;-71
2023/04/24 08:19:44;;;;;;;9.75;1.17;;;9.20;99.90;;;;;;5037850;28;21031;-71
2023/04/24 08:22:12;;;;;;;17.00;1.50;;;9.30;99.90;;;;;;5032701;28;20120;-71
2023/04/24 08:24:38;;;;;;;4.05;1.05;;;9.30;99.90;;;;;;5033056;28;20030;-71
2023/04/24 08:27:03;;;;;;;6.10;1.10;;;9.30;99.90;;;;;;5038875;28;20374;-71
2023/04/24 08:29:29;;;;;;;12.63;1.33;;;9.40;99.90;;;;;;5033760;28;20033;-70
2023/04/24 08:31:55;;;;;;;12.98;1.27;;;9.40;99.90;;;;;;5037831;28;20017;-71
2023/04/24 08:34:32;;;;;;;14.13;1.45;;;9.50;99.90;;;;;;5035938;28;20569;-71
2023/04/24 08:37:04;;;;;;;7.53;1.65;;;9.50;99.90;;;;;;5035775;28;20045;-72
2023/04/24 08:39:30;;;;;;;7.18;1.50;;;9.50;99.90;;;;;;5039975;28;20117;-71
2023/04/24 08:41:56;;;;;;;9.02;1.73;;;9.60;99.90;;;;;;5037928;28;20128;-71
2023/04/24 08:44:21;;;;;;;7.63;1.13;;;9.70;99.90;;;;;;5039889;28;20095;-71
2023/04/24 08:46:48;;;;;;;6.93;1.02;;;9.70;99.90;;;;;;5041867;28;20152;-72
2023/04/24 08:49:17;;;;;;;7.97;1.55;;;9.70;99.90;;;;;;5036640;28;20539;-71
2023/04/24 08:51:44;;;;;;;12.43;1.40;;;9.80;99.90;;;;;;5038907;28;20041;-71
2023/04/24 08:54:11;;;;;;;10.82;1.52;;;9.90;99.90;;;;;;5029076;28;20042;-72
2023/04/24 08:56:39;;;;;;;6.05;1.15;;;10.00;99.90;;;;;;5025140;28;20044;-71
2023/04/24 08:59:12;;;;;;;12.23;2.78;;;9.90;99.90;;;;;;5028897;28;20374;-72
2023/04/24 09:01:39;;;;;;;8.27;1.15;;;9.90;99.90;;;;;;5034379;28;20045;-71
2023/04/24 09:04:08;;;;;;;8.45;0.95;;;9.80;99.90;;;;;;5028618;28;20042;-71
2023/04/24 09:06:34;;;;;;;5.78;1.08;;;9.80;99.90;;;;;;5039616;28;20068;-71
2023/04/24 09:09:01;;;;;;;5.55;1.20;;;9.70;99.90;;;;;;5037045;28;20037;-72
2023/04/24 09:11:27;;;;;;;5.05;1.15;;;9.70;99.90;;;;;;5036474;28;20889;-71
2023/04/24 09:13:54;;;;;;;9.25;0.73;;;9.80;99.90;;;;;;5033117;28;20162;-71
2023/04/24 09:16:22;;;;;;;6.68;1.15;;;9.90;99.90;;;;;;5040506;28;20029;-71
2023/04/24 09:18:48;;;;;;;6.45;0.88;;;10.00;99.90;;;;;;5041461;28;20119;-71
2023/04/24 09:21:14;;;;;;;4.30;0.93;;;10.20;99.90;;;;;;5035868;28;20113;-71
2023/04/24 09:23:41;;;;;;;4.72;0.80;;;10.30;99.90;;;;;;5026108;28;20042;-72
2023/04/24 09:26:09;;;;;;;3.55;0.57;;;10.30;99.90;;;;;;5031286;28;20030;-71
2023/04/24 09:28:37;;;;;;;5.50;0.88;;;10.30;99.90;;;;;;5031835;28;20035;-71
2023/04/24 09:31:14;;;;;;;3.92;0.70;;;10.40;99.90;;;;;;5032487;28;20568;-71
2023/04/24 09:33:40;;;;;;;5.70;0.63;;;10.40;99.90;;;;;;5035928;28;20095;-71
2023/04/24 09:36:06;;;;;;;4.43;1.35;;;10.50;99.90;;;;;;5037132;28;20033;-70
2023/04/24 09:38:38;;;;;;;5.25;0.68;;;10.40;99.90;;;;;;5042458;28;20132;-71
2023/04/24 09:41:08;;;;;;;4.65;0.93;;;10.40;99.90;;;;;;5037421;28;20528;-71
2023/04/24 09:43:35;;;;;;;12.05;0.93;;;10.40;99.90;;;;;;5039764;28;20029;-70
2023/04/24 09:46:09;;;;;;;4.78;1.00;;;10.40;99.90;;;;;;5037994;28;20123;-71
2023/04/24 09:48:36;;;;;;;10.32;1.95;;;10.50;99.90;;;;;;5046784;28;20043;-70
2023/04/24 09:51:06;;;;;;;5.82;1.10;;;10.40;99.90;;;;;;5042532;28;20041;-70
2023/04/24 09:53:32;;;;;;;5.07;0.65;;;10.30;99.90;;;;;;5038694;28;20060;-70
2023/04/24 09:56:12;;;;;;;2.17;0.70;;;10.20;99.90;;;;;;5038707;28;20056;-71
2023/04/24 09:58:38;;;;;;;2.17;0.80;;;10.20;99.90;;;;;;5041586;28;20033;-71
2023/04/24 10:01:09;;;;;;;3.72;0.65;;;10.20;99.90;;;;;;5039433;28;20084;-71
2023/04/24 10:03:42;;;;;;;3.28;0.73;;;10.20;99.90;;;;;;5043375;28;20490;-72
2023/04/24 10:06:12;;;;;;;5.55;0.45;;;10.10;99.90;;;;;;5043103;28;20037;-72
2023/04/24 10:08:38;;;;;;;2.25;0.20;;;10.00;99.90;;;;;;5045008;28;20576;-72
2023/04/24 10:11:04;;;;;;;3.60;0.73;;;9.90;99.90;;;;;;5035557;28;20045;-72
2023/04/24 10:13:33;;;;;;;2.83;0.30;;;9.90;99.90;;;;;;5035888;28;20037;-71
2023/04/24 10:16:00;;;;;;;6.25;0.60;;;10.00;99.90;;;;;;5041208;28;20130;-71
2023/04/24 10:18:26;;;;;;;4.75;0.50;;;10.10;99.90;;;;;;5037958;28;20036;-71
2023/04/24 10:20:54;;;;;;;2.53;0.63;;;10.30;99.90;;;;;;5033000;28;20036;-72
2023/04/24 10:23:27;;;;;;;1.70;0.25;;;10.30;99.90;;;;;;5041683;28;20036;-71
2023/04/24 10:25:53;;;;;;;1.98;0.20;;;10.40;99.90;;;;;;5039878;28;20045;-71
2023/04/24 10:28:20;;;;;;;2.15;0.40;;;10.40;99.90;;;;;;5038095;28;20159;-73
2023/04/24 10:30:49;;;;;;;3.17;0.30;;;10.30;99.90;;;;;;5037459;28;20517;-73
2023/04/24 10:33:16;;;;;;;4.72;0.55;;;10.30;99.90;;;;;;5035191;28;20037;-73
2023/04/24 10:35:48;;;;;;;2.75;0.28;;;10.30;99.90;;;;;;5044572;28;20029;-72
2023/04/24 10:38:18;;;;;;;3.10;0.63;;;10.40;99.90;;;;;;5036066;28;20033;-70
2023/04/24 10:40:47;;;;;;;3.63;0.30;;;10.50;99.90;;;;;;5037773;28;20040;-70
2023/04/24 10:43:17;;;;;;;1.48;0.50;;;10.80;99.90;;;;;;5042598;28;20145;-70
2023/04/24 10:46:05;;;;;;;2.70;0.50;;;11.20;99.90;;;;;;5038106;28;20042;-71
2023/04/24 10:48:32;;;;;;;1.40;0.20;;;11.40;99.90;;;;;;5030467;28;20029;-72
2023/04/24 10:50:58;;;;;;;2.55;0.30;;;11.60;99.90;;;;;;5039576;28;20037;-71
2023/04/24 10:53:31;;;;;;;1.00;0.00;;;11.80;99.90;;;;;;5034767;28;20041;-71
2023/04/24 10:56:09;;;;;;;2.90;0.25;;;12.20;99.90;;;;;;5032183;28;20037;-72
2023/04/24 10:58:43;;;;;;;2.25;0.45;;;12.30;99.90;;;;;;5034922;28;20033;-70
2023/04/24 11:01:08;;;;;;;1.95;0.32;;;12.20;99.90;;;;;;5033920;28;20060;-71
2023/04/24 11:03:36;;;;;;;2.75;0.43;;;12.00;99.90;;;;;;5038834;28;20091;-71
2023/04/24 11:06:04;;;;;;;3.92;0.43;;;12.00;99.90;;;;;;5032534;28;20131;-72
2023/04/24 11:08:38;;;;;;;2.47;0.73;;;11.90;99.90;;;;;;5033154;28;20086;-72
2023/04/24 11:11:13;;;;;;;4.85;0.82;;;11.90;99.90;;;;;;5031481;28;20033;-71
2023/04/24 11:13:54;;;;;;;2.67;0.32;;;11.80;99.90;;;;;;5034555;28;20029;-71
2023/04/24 11:16:25;;;;;;;3.75;0.85;;;11.70;99.90;;;;;;5035934;28;20099;-71
2023/04/24 11:18:59;;;;;;;2.42;0.55;;;11.30;99.90;;;;;;5036723;28;20440;-71
2023/04/24 11:21:26;;;;;;;3.53;0.22;;;10.90;99.90;;;;;;5036042;28;20038;-73
2023/04/24 11:23:55;;;;;;;1.88;0.30;;;10.50;99.90;;;;;;5037604;28;20060;-72
2023/04/24 11:26:24;;;;;;;1.83;0.05;;;10.30;99.90;;;;;;5034106;28;20045;-70
2023/04/24 11:28:50;;;;;;;0.73;0.38;;;10.30;99.90;;;;;;5034760;28;20062;-71
2023/04/24 11:31:38;;;;;;;3.40;0.20;;;10.60;99.90;;;;;;5036078;28;20182;-74
2023/04/24 11:34:13;;;;;;;2.08;0.10;;;10.70;99.90;;;;;;5035185;28;20037;-72
2023/04/24 11:36:43;;;;;;;1.60;0.15;;;10.90;99.90;;;;;;5035781;28;20036;-72
2023/04/24 11:39:10;;;;;;;1.25;0.22;;;11.20;99.90;;;;;;5033739;28;20512;-72
2023/04/24 11:41:38;;;;;;;8.32;0.10;;;11.30;99.90;;;;;;5035798;28;20068;-72
2023/04/24 11:44:07;;;;;;;3.20;0.40;;;11.60;99.90;;;;;;5036433;28;20128;-73
2023/04/24 11:46:33;;;;;;;2.63;0.85;;;11.80;99.90;;;;;;5030098;28;20033;-71
2023/04/24 11:48:59;;;;;;;5.03;0.50;;;11.80;99.90;;;;;;5042674;28;20044;-71
2023/04/24 11:51:27;;;;;;;2.83;0.15;;;11.90;99.90;;;;;;5035093;28;20041;-70
2023/04/24 11:53:56;;;;;;;2.63;0.20;;;12.00;99.90;;;;;;5036947;28;20069;-71
2023/04/24 11:56:23;;;;;;;3.15;0.63;;;12.00;99.90;;;;;;5035822;28;20064;-71
2023/04/24 11:58:53;;;;;;;1.13;0.20;;;12.10;99.90;;;;;;5039578;28;20036;-71
2023/04/24 12:01:18;;;;;;;2.65;0.50;;;12.30;99.90;;;;;;5031712;28;20091;-71
2023/04/24 12:03:59;;;;;;;2.03;0.57;;;12.40;99.90;;;;;;5043363;28;20037;-71
2023/04/24 12:06:25;;;;;;;3.45;0.30;;;12.60;99.90;;;;;;5039147;28;20061;-71
2023/04/24 12:08:54;;;;;;;3.72;0.50;;;12.60;99.90;;;;;;5041613;28;20126;-71
2023/04/24 12:11:26;;;;;;;3.05;0.55;;;12.70;99.90;;;;;;5041351;28;20129;-71
2023/04/24 12:13:54;;;;;;;2.90;0.40;;;12.60;99.90;;;;;;5033963;28;20502;-72
2023/04/24 12:16:26;;;;;;;5.50;0.65;;;12.60;99.90;;;;;;5035347;28;20045;-71
2023/04/24 12:18:52;;;;;;;2.20;0.55;;;12.60;99.90;;;;;;5034723;28;20048;-72
2023/04/24 12:21:30;;;;;;;5.97;0.77;;;12.60;99.90;;;;;;5034888;28;20037;-71
2023/04/24 12:23:55;;;;;;;4.85;0.70;;;12.50;99.90;;;;;;5039008;28;20055;-72
2023/04/24 12:26:25;;;;;;;2.08;0.65;;;12.40;99.90;;;;;;5035358;28;20490;-71
2023/04/24 12:28:51;;;;;;;9.77;0.97;;;12.40;99.90;;;;;;5035527;28;20108;-72
2023/04/24 12:31:17;;;;;;;5.15;0.63;;;12.30;99.90;;;;;;5034171;28;21282;-71
2023/04/24 12:33:43;;;;;;;7.85;0.90;;;12.30;99.90;;;;;;5035303;28;20049;-70
2023/04/24 12:36:12;;;;;;;3.47;0.50;;;12.30;99.90;;;;;;5033419;28;20029;-71
2023/04/24 12:38:43;;;;;;;2.22;0.40;;;12.20;99.90;;;;;;5034300;28;20049;-73
2023/04/24 12:41:13;;;;;;;5.07;1.02;;;12.20;99.90;;;;;;5035313;28;20116;-71
2023/04/24 12:43:53;;;;;;;8.48;0.68;;;12.10;99.90;;;;;;5033933;28;20065;-71
2023/04/24 12:46:21;;;;;;;6.72;1.02;;;12.10;99.90;;;;;;5032674;28;20040;-71
2023/04/24 12:48:47;;;;;;;2.83;0.65;;;12.00;99.90;;;;;;5039888;28;20516;-71
2023/04/24 12:51:15;;;;;;;5.13;1.05;;;11.90;99.90;;;;;;5031678;28;20041;-72
2023/04/24 12:53:41;;;;;;;6.18;1.55;;;11.70;99.90;;;;;;5038568;28;20048;-71
2023/04/24 12:56:06;;;;;;;8.10;1.10;;;11.60;99.90;;;;;;5032257;28;20033;-72
2023/04/24 12:58:32;;;;;;;7.40;1.42;;;11.40;99.90;;;;;;5035667;28;20044;-71